Saturday, August 18, 2018, 3:16 AM EDT
Back to Local

KMLT, Millinocket Municipal Airport

Location: Millinocket, ME, United States Lat: 45.65
Local Time: 3:16 AM EDT ( 7:16 GMT) Lon: -68.7
Time Zone: US/Eastern Elev: 406 ft

Show me the last for .
Show Decoded

2018-08-18 03:07 METAR KMLT 180707Z AUTO 10003KT 10SM OVC005 17/16 A2982 RMK AO2 T01720161 TSNO =
2018-08-18 02:53 METAR KMLT 180653Z AUTO 00000KT 10SM OVC004 17/16 A2983 RMK AO2 RAE23B43E53
                 SLP103 P0015 T01720161 TSNO =
2018-08-18 02:20 METAR KMLT 180620Z AUTO 12003KT 7SM -RA OVC004 17/16 A2984 RMK AO2 P0015
                 T01720161 TSNO =
2018-08-18 02:13 METAR KMLT 180613Z AUTO 12003KT 2 1/2SM RA BR OVC004 17/16 A2985 RMK AO2 CIG
                 003V007 P0015 T01670161 TSNO =
2018-08-18 02:04 METAR KMLT 180604Z AUTO 10004KT 1 3/4SM +RA BR OVC005 17/16 A2985 RMK AO2 CIG
                 003V007 P0012 T01670161 TSNO =
2018-08-18 01:53 METAR KMLT 180553Z AUTO 12003KT 5SM RA BR OVC005 17/16 A2985 RMK AO2 SLP113
                 P0005 60024 T01720161 10200 20167 58019 TSNO =
2018-08-18 01:35 METAR KMLT 180535Z AUTO 12004KT 9SM -RA BKN005 OVC043 17/16 A2987 RMK AO2 P0003
                 T01670156 TSNO =
2018-08-18 01:08 METAR KMLT 180508Z AUTO 13003KT 6SM -RA BR BKN007 OVC039 17/16 A2989 RMK AO2 CIG
                 004V011 P0001 T01720156 TSNO =
2018-08-18 00:53 METAR KMLT 180453Z AUTO VRB03KT 10SM -RA OVC005 17/16 A2990 RMK AO2 RAB33 CIG
                 004V010 SLP126 P0001 T01720161 402500111 TSNO =
2018-08-18 00:51 METAR KMLT 180451Z AUTO 00000KT 10SM -RA OVC005 17/16 A2989 RMK AO2 RAB33 P0001
                 TSNO =
2018-08-18 00:25 METAR KMLT 180425Z AUTO VRB04KT 10SM BKN007 BKN012 OVC034 17/16 A2990 RMK AO2
                 CIG 005V010 T01670156 TSNO =
2018-08-17 23:53 METAR KMLT 180353Z AUTO 13005KT 10SM FEW006 BKN035 OVC047 17/16 A2991 RMK AO2
                 RAE24 SLP132 P0004 T01670156 TSNO =
2018-08-17 23:51 METAR KMLT 180351Z AUTO 13004KT 10SM FEW006 BKN035 OVC047 17/16 A2991 RMK AO2
                 RAE24 P0004 TSNO =
2018-08-17 22:53 METAR KMLT 180253Z AUTO VRB04KT 10SM -RA SCT036 SCT045 OVC055 17/15 A2994 RMK
                 AO2 RAB0156 SLP142 P0014 60014 T01670150 58008 TSNO =
2018-08-17 22:45 METAR KMLT 180245Z AUTO VRB04KT 2SM -RA BR FEW031 BKN039 OVC055 17/15 A2994 RMK
                 AO2 RAB0156 P0014 T01670150 TSNO =
2018-08-17 22:17 METAR KMLT 180217Z AUTO VRB04KT 10SM -RA SCT031 BKN035 OVC055 17/16 A2995 RMK
                 AO2 RAB0156 P0007 T01720156 TSNO =
2018-08-17 22:09 METAR KMLT 180209Z AUTO VRB04KT 2 1/2SM -RA BR SCT031 BKN055 OVC100 17/15 A2995
                 RMK AO2 RAB0156 P0006 T01720150 TSNO =
2018-08-17 21:53 METAR KMLT 180153Z AUTO VRB06KT 10SM BKN060 BKN080 OVC100 18/16 A2995 RMK AO2
                 RAE11 SLP146 P0000 T01780156 TSNO =
2018-08-17 20:53 METAR KMLT 180053Z AUTO 17004KT 10SM -RA BKN055 BKN075 OVC090 19/17 A2996 RMK
                 AO2 RAE31B49 SLP151 P0000 T01890172 TSNO =
2018-08-17 19:53 METAR KMLT 172353Z AUTO VRB03KT 9SM -RA BKN110 20/17 A2997 RMK AO2 RAB09 SLP151
                 P0001 60001 T02000172 10250 20200 56007 TSNO =
2018-08-17 18:53 METAR KMLT 172253Z AUTO VRB05KT 10SM FEW120 22/14 A2997 RMK AO2 SLP151 T02220144
                 TSNO =
2018-08-17 17:53 METAR KMLT 172153Z AUTO 00000KT 10SM FEW070 24/14 A2997 RMK AO2 SLP153 T02390139
                 TSNO =
2018-08-17 16:53 METAR KMLT 172053Z AUTO VRB04KT 10SM CLR 24/14 A2999 RMK AO2 SLP158 T02440139
                 58020 TSNO =
2018-08-17 15:53 METAR KMLT 171953Z AUTO VRB06KT 10SM CLR 25/14 A3001 RMK AO2 SLP165 T02500144
                 TSNO =
2018-08-17 14:53 METAR KMLT 171853Z AUTO VRB05KT 10SM CLR 24/14 A3003 RMK AO2 SLP172 T02440139
                 TSNO =
2018-08-17 13:53 METAR KMLT 171753Z AUTO VRB03KT 10SM CLR 23/13 A3005 RMK AO2 SLP178 T02330133
                 10239 20156 58018 TSNO =
2018-08-17 12:53 METAR KMLT 171653Z AUTO 21007KT 160V240 10SM FEW039 23/13 A3007 RMK AO2 SLP185
                 T02330133 TSNO =
2018-08-17 11:53 METAR KMLT 171553Z AUTO 23006KT 10SM FEW043 22/13 A3009 RMK AO2 SLP193 T02220133
                 TSNO =
2018-08-17 10:53 METAR KMLT 171453Z AUTO 20004KT 10SM CLR 22/13 A3010 RMK AO2 SLP196 T02170133
                 58016 TSNO =
2018-08-17 09:53 METAR KMLT 171353Z AUTO 13004KT 10SM CLR 20/13 A3012 RMK AO2 SLP204 T02000128
                 TSNO =
2018-08-17 08:53 METAR KMLT 171253Z AUTO 12003KT 10SM OVC045 17/12 A3014 RMK AO2 SLP210 T01670122
                 TSNO =
2018-08-17 07:53 METAR KMLT 171153Z AUTO 00000KT 10SM BKN045 16/13 A3015 RMK AO2 SLP213 T01560128
                 10156 20111 50010 TSNO =
2018-08-17 06:53 METAR KMLT 171053Z AUTO 00000KT 10SM CLR 12/10 A3015 RMK AO2 SLP213 T01220100
                 TSNO =
2018-08-17 05:53 METAR KMLT 170953Z AUTO 00000KT 10SM CLR 11/09 A3013 RMK AO2 SLP207 T01110094
                 TSNO =
2018-08-17 04:53 METAR KMLT 170853Z AUTO 00000KT 10SM SCT002 12/10 A3012 RMK AO2 SLP202 T01170100
                 53002 TSNO =
2018-08-17 04:02 METAR KMLT 170802Z AUTO 00000KT 10SM SCT001 12/09 A3011 RMK AO2 T01170094 TSNO =
2018-08-17 03:53 METAR KMLT 170753Z AUTO 00000KT 10SM CLR 12/10 A3011 RMK AO2 SLP201 T01170100
                 TSNO =

Support USWX by starting your Amazon purchase here.